createdAt,value
2022-10-11T00:00:20.583Z,85.19
2022-10-11T00:01:20.655Z,84.88
2022-10-11T00:02:20.593Z,83.86
2022-10-11T00:03:20.563Z,83.92
2022-10-11T00:04:20.554Z,83.76
2022-10-11T00:05:20.551Z,82.23
2022-10-11T00:06:20.569Z,82.23
2022-10-11T00:07:20.548Z,81.88
2022-10-11T00:08:20.515Z,81.68
2022-10-11T00:09:20.538Z,81.27
2022-10-11T00:10:20.498Z,80.26
2022-10-11T00:11:20.491Z,79.27
2022-10-11T00:12:20.482Z,79.14
2022-10-11T00:13:20.465Z,79.44
2022-10-11T00:14:20.472Z,79.34
2022-10-11T00:15:20.444Z,79.24
2022-10-11T00:16:20.455Z,78.46
2022-10-11T00:17:20.421Z,78.73
2022-10-11T00:18:20.428Z,77.91
2022-10-11T00:19:20.395Z,78.22
2022-10-11T00:20:20.414Z,78.32
2022-10-11T00:21:20.383Z,78.32
2022-10-11T00:22:20.402Z,78.46
2022-10-11T00:23:20.368Z,78.16
2022-10-11T00:24:20.351Z,78.42
2022-10-11T00:25:20.347Z,78.46
2022-10-11T00:26:20.336Z,78.53
2022-10-11T00:27:20.359Z,78.22
2022-10-11T00:28:20.378Z,78.19
2022-10-11T00:29:20.298Z,78.32
2022-10-11T00:30:20.293Z,78.08
2022-10-11T00:31:20.285Z,78.08
2022-10-11T00:32:20.272Z,78.22
2022-10-11T00:33:20.280Z,78.19
2022-10-11T00:34:20.244Z,78.28
2022-10-11T00:35:20.260Z,78.59
2022-10-11T00:36:20.269Z,76.59
2022-10-11T00:37:20.257Z,76.59
2022-10-11T00:38:20.216Z,75.78
2022-10-11T00:39:20.209Z,76.08
2022-10-11T00:40:20.195Z,76.62
2022-10-11T00:41:20.246Z,76.53
2022-10-11T00:42:20.166Z,76.76
2022-10-11T00:43:20.171Z,76.97
2022-10-11T00:44:20.141Z,77.89
2022-10-11T00:45:20.153Z,77.37
2022-10-11T00:46:20.148Z,76.80
2022-10-11T00:47:20.118Z,76.70
2022-10-11T00:48:20.118Z,78.02
2022-10-11T00:49:20.110Z,78.23
2022-10-11T00:50:20.088Z,78.53
2022-10-11T00:51:20.113Z,78.53
2022-10-11T00:52:20.069Z,78.06
2022-10-11T00:53:20.078Z,78.33
2022-10-11T00:54:20.041Z,77.86
2022-10-11T00:55:20.035Z,77.96
2022-10-11T00:56:20.029Z,78.16
2022-10-11T00:57:20.036Z,78.37
2022-10-11T00:58:20.044Z,78.37
2022-10-11T00:59:20.023Z,78.37
2022-10-11T01:00:19.990Z,78.16
2022-10-11T01:01:20.062Z,77.89
2022-10-11T01:02:19.977Z,77.75
2022-10-11T01:03:19.945Z,78.30
2022-10-11T01:04:20.015Z,77.89
2022-10-11T01:05:32.567Z,78.16
2022-10-11T01:06:21.935Z,78.41
2022-10-11T01:07:19.917Z,76.73
2022-10-11T01:08:19.922Z,77.79
2022-10-11T01:09:19.912Z,77.48
2022-10-11T01:10:20.906Z,78.20
2022-10-11T01:11:19.895Z,77.62
2022-10-11T01:12:19.860Z,77.83
2022-10-11T01:13:19.858Z,78.41
2022-10-11T01:14:19.844Z,77.89
2022-10-11T01:15:19.906Z,77.59
2022-10-11T01:16:19.859Z,77.79
2022-10-11T01:17:19.821Z,77.59
2022-10-11T01:18:19.810Z,77.59
2022-10-11T01:19:19.791Z,77.83
2022-10-11T01:20:19.813Z,77.59
2022-10-11T01:21:19.775Z,78.23
2022-10-11T01:22:19.781Z,77.89
2022-10-11T01:23:19.772Z,77.83
2022-10-11T01:24:19.764Z,77.79
2022-10-11T01:25:19.943Z,77.69
2022-10-11T01:26:19.737Z,77.79
2022-10-11T01:27:19.730Z,77.59
2022-10-11T01:28:19.775Z,76.90
2022-10-11T01:29:19.685Z,77.66
2022-10-11T01:30:20.727Z,78.03
2022-10-11T01:31:19.710Z,78.34
2022-10-11T01:32:19.671Z,78.58
2022-10-11T01:33:19.664Z,78.52
2022-10-11T01:34:19.656Z,79.23
2022-10-11T01:35:19.667Z,80.05
2022-10-11T01:36:19.632Z,79.13
2022-10-11T01:37:19.626Z,79.43
2022-10-11T01:38:19.688Z,79.74
2022-10-11T01:39:19.605Z,79.74
2022-10-11T01:40:19.607Z,79.33
2022-10-11T01:41:19.585Z,79.53
2022-10-11T01:42:19.571Z,79.64
2022-10-11T01:43:19.579Z,80.15
2022-10-11T01:44:19.558Z,79.57
2022-10-11T01:45:19.544Z,79.84
2022-10-11T01:46:19.561Z,79.74
2022-10-11T01:47:19.524Z,79.78
2022-10-11T01:48:19.523Z,80.19
2022-10-11T01:49:19.513Z,80.46
2022-10-11T01:50:19.499Z,79.74
2022-10-11T01:51:19.517Z,80.15
2022-10-11T01:52:19.479Z,80.46
2022-10-11T01:53:19.486Z,79.64
2022-10-11T01:54:19.473Z,79.64
2022-10-11T01:55:19.440Z,79.33
2022-10-11T01:56:19.427Z,79.43
2022-10-11T01:57:19.426Z,79.39
2022-10-11T01:58:19.438Z,79.29
2022-10-11T01:59:19.405Z,79.09
2022-10-11T02:00:19.390Z,79.53
2022-10-11T02:01:19.422Z,79.43
2022-10-11T02:02:19.400Z,79.94
2022-10-11T02:03:19.359Z,79.64
2022-10-11T02:04:19.369Z,79.64
2022-10-11T02:05:19.341Z,79.74
2022-10-11T02:06:19.331Z,79.64
2022-10-11T02:07:19.326Z,79.84
2022-10-11T02:08:19.318Z,79.84
2022-10-11T02:09:19.326Z,79.64
2022-10-11T02:10:19.312Z,79.23
2022-10-11T02:11:19.290Z,79.78
2022-10-11T02:12:19.309Z,79.53
2022-10-11T02:13:19.270Z,79.78
2022-10-11T02:14:19.292Z,79.78
2022-10-11T02:15:19.264Z,79.84
2022-10-11T02:16:19.257Z,79.68
2022-10-11T02:17:19.245Z,79.53
2022-10-11T02:18:19.241Z,79.64
2022-10-11T02:19:19.218Z,79.88
2022-10-11T02:20:19.198Z,79.68
2022-10-11T02:21:19.205Z,79.57
2022-10-11T02:22:19.178Z,79.47
2022-10-11T02:23:19.176Z,79.82
2022-10-11T02:24:19.159Z,80.02
2022-10-11T02:25:19.142Z,80.12
2022-10-11T02:26:19.147Z,79.91
2022-10-11T02:27:19.128Z,79.82
2022-10-11T02:28:19.154Z,80.02
2022-10-11T02:29:19.108Z,79.82
2022-10-11T02:30:19.103Z,80.02
2022-10-11T02:31:19.115Z,79.82
2022-10-11T02:32:19.075Z,79.82
2022-10-11T02:33:19.076Z,80.12
2022-10-11T02:35:37.514Z,80.26
2022-10-11T02:36:37.557Z,80.26
2022-10-11T02:37:38.645Z,80.46
2022-10-11T02:38:38.631Z,80.77
2022-10-11T02:39:38.632Z,80.36
2022-10-11T02:40:38.616Z,80.53
2022-10-11T02:41:38.641Z,80.83
2022-10-11T02:42:38.590Z,80.77
2022-10-11T02:43:38.582Z,80.98
2022-10-11T02:44:38.581Z,81.18
2022-10-11T02:45:38.573Z,81.08
2022-10-11T02:46:38.557Z,80.88
2022-10-11T02:47:38.557Z,81.18
2022-10-11T02:48:38.543Z,80.98
2022-10-11T02:49:38.520Z,80.77
2022-10-11T02:50:38.517Z,80.67
2022-10-11T02:51:38.531Z,80.67
2022-10-11T02:52:38.495Z,80.77
2022-10-11T02:53:38.493Z,81.01
2022-10-11T02:54:38.496Z,80.98
2022-10-11T02:55:38.461Z,81.18
2022-10-11T02:56:38.456Z,81.12
2022-10-11T02:57:38.453Z,81.01
2022-10-11T02:58:38.439Z,81.43
2022-10-11T02:59:38.434Z,81.01
2022-10-11T03:00:38.409Z,81.84
2022-10-11T03:01:38.460Z,81.73
2022-10-11T03:02:38.412Z,81.73
2022-10-11T03:03:38.391Z,81.52
2022-10-11T03:04:38.393Z,81.73
2022-10-11T03:05:38.374Z,81.43
2022-10-11T03:06:38.378Z,81.43
2022-10-11T03:07:38.351Z,81.52
2022-10-11T03:08:38.333Z,81.57
2022-10-11T03:09:38.342Z,82.14
2022-10-11T03:10:39.319Z,82.28
2022-10-11T03:11:38.309Z,82.35
2022-10-11T03:12:38.295Z,82.28
2022-10-11T03:13:38.292Z,82.18
2022-10-11T03:14:38.302Z,82.08
2022-10-11T03:15:39.271Z,81.67
2022-10-11T03:16:38.262Z,82.04
2022-10-11T03:17:38.251Z,82.14
2022-10-11T03:18:38.243Z,82.08
2022-10-11T03:19:38.238Z,82.08
2022-10-11T03:20:38.249Z,82.18
2022-10-11T03:21:38.223Z,82.08
2022-10-11T03:22:38.208Z,82.08
2022-10-11T03:23:38.197Z,82.08
2022-10-11T03:24:38.196Z,82.08
2022-10-11T03:25:38.196Z,82.12
2022-10-11T03:26:38.156Z,82.63
2022-10-11T03:27:38.148Z,82.83
2022-10-11T03:28:38.204Z,82.83
2022-10-11T03:29:38.141Z,82.93
2022-10-11T03:30:38.138Z,82.63
2022-10-11T03:31:38.142Z,83.28
2022-10-11T03:32:38.098Z,82.97
2022-10-11T03:33:38.098Z,83.07
2022-10-11T03:34:38.080Z,83.39
2022-10-11T03:35:38.076Z,83.73
2022-10-11T03:36:38.092Z,83.39
2022-10-11T03:37:38.061Z,83.28
2022-10-11T03:38:38.050Z,83.53
2022-10-11T03:39:38.033Z,83.69
2022-10-11T03:40:39.032Z,84.14
2022-10-11T03:41:38.018Z,84.66
2022-10-11T03:42:38.030Z,84.25
2022-10-11T03:43:37.991Z,84.14
2022-10-11T03:44:37.992Z,83.59
2022-10-11T03:45:37.975Z,83.73
2022-10-11T03:46:37.976Z,84.45
2022-10-11T03:47:37.955Z,84.66
2022-10-11T03:48:37.952Z,84.45
2022-10-11T03:49:42.708Z,83.83
2022-10-11T03:50:38.932Z,83.63
2022-10-11T03:51:37.922Z,84.04
2022-10-11T03:52:37.906Z,84.14
2022-10-11T03:53:37.905Z,84.49
2022-10-11T03:54:37.899Z,84.55
2022-10-11T03:55:37.890Z,84.25
2022-10-11T03:56:37.859Z,83.83
2022-10-11T03:57:37.851Z,84.45
2022-10-11T03:58:37.839Z,83.94
2022-10-11T03:59:37.831Z,84.28
2022-10-11T04:00:37.843Z,83.87
2022-10-11T04:01:37.930Z,83.67
2022-10-11T04:02:39.342Z,83.87
2022-10-11T04:03:37.789Z,84.39
2022-10-11T04:04:37.784Z,84.01
2022-10-11T04:05:37.776Z,84.32
2022-10-11T04:06:37.778Z,84.32
2022-10-11T04:07:37.755Z,84.74
2022-10-11T04:08:37.762Z,84.32
2022-10-11T04:09:37.754Z,84.47
2022-10-11T04:10:37.719Z,84.36
2022-10-11T04:11:37.763Z,84.47
2022-10-11T04:12:37.746Z,84.16
2022-10-11T04:13:37.709Z,85.60
2022-10-11T04:14:37.687Z,85.60
2022-10-11T04:15:37.693Z,85.60
2022-10-11T04:16:37.667Z,85.39
2022-10-11T04:17:37.682Z,85.08
2022-10-11T04:18:37.656Z,84.47
2022-10-11T04:19:37.645Z,85.60
2022-10-11T04:20:37.658Z,85.70
2022-10-11T04:21:37.619Z,85.55
2022-10-11T04:22:37.611Z,85.49
2022-10-11T04:23:37.615Z,85.28
2022-10-11T04:24:37.613Z,84.98
2022-10-11T04:25:37.635Z,84.77
2022-10-11T04:26:37.575Z,84.36
2022-10-11T04:27:37.559Z,84.47
2022-10-11T04:28:37.574Z,84.30
2022-10-11T04:29:37.544Z,84.30
2022-10-11T04:30:37.550Z,84.26
2022-10-11T04:31:37.518Z,84.56
2022-10-11T04:32:37.515Z,84.05
2022-10-11T04:33:37.530Z,84.20
2022-10-11T04:34:37.490Z,84.40
2022-10-11T04:35:37.485Z,84.61
2022-10-11T04:36:37.496Z,84.64
2022-10-11T04:37:37.494Z,84.44
2022-10-11T04:38:37.462Z,84.64
2022-10-11T04:39:37.441Z,85.47
2022-10-11T04:40:37.425Z,85.68
2022-10-11T04:41:37.428Z,85.78
2022-10-11T04:42:37.462Z,85.71
2022-10-11T04:43:37.431Z,85.10
2022-10-11T04:44:37.426Z,85.51
2022-10-11T04:45:37.394Z,85.92
2022-10-11T04:46:37.375Z,85.92
2022-10-11T04:47:37.374Z,86.02
2022-10-11T04:48:37.350Z,86.02
2022-10-11T04:49:37.366Z,85.61
2022-10-11T04:50:37.336Z,86.02
2022-10-11T04:51:37.321Z,86.43
2022-10-11T04:52:37.334Z,86.29
2022-10-11T04:53:37.313Z,86.33
2022-10-11T04:54:37.295Z,86.23
2022-10-11T04:55:37.297Z,86.13
2022-10-11T04:56:37.287Z,86.13
2022-10-11T04:57:37.287Z,85.92
2022-10-11T04:58:37.256Z,86.13
2022-10-11T04:59:37.262Z,85.82
2022-10-11T05:00:37.235Z,85.41
2022-10-11T05:01:37.268Z,85.30
2022-10-11T05:02:38.219Z,84.79
2022-10-11T05:03:37.216Z,85.61
2022-10-11T05:04:37.217Z,85.71
2022-10-11T05:05:37.187Z,85.65
2022-10-11T05:06:37.185Z,85.86
2022-10-11T05:07:37.183Z,85.82
2022-10-11T05:08:37.174Z,85.61
2022-10-11T05:09:37.183Z,85.71
2022-10-11T05:10:37.138Z,85.75
2022-10-11T05:11:37.134Z,85.55
2022-10-11T05:12:37.140Z,85.89
2022-10-11T05:13:37.134Z,85.38
2022-10-11T05:14:37.108Z,85.49
2022-10-11T05:15:37.103Z,86.00
2022-10-11T05:16:37.228Z,86.52
2022-10-11T05:17:37.100Z,86.24
2022-10-11T05:18:37.069Z,86.31
2022-10-11T05:19:37.059Z,86.55
2022-10-11T05:20:37.039Z,86.41
2022-10-11T05:21:37.041Z,86.31
2022-10-11T05:22:37.053Z,86.21
2022-10-11T05:23:37.025Z,86.52
2022-10-11T05:24:37.028Z,86.21
2022-10-11T05:25:37.020Z,85.89
2022-10-11T05:26:37.014Z,86.00
2022-10-11T05:27:36.993Z,85.79
2022-10-11T05:28:37.063Z,85.79
2022-10-11T05:29:36.964Z,86.00
2022-10-11T05:30:36.974Z,85.69
2022-10-11T05:31:36.942Z,85.49
2022-10-11T05:32:36.932Z,85.69
2022-10-11T05:33:36.927Z,85.07
2022-10-11T05:34:36.915Z,85.38
2022-10-11T05:35:36.918Z,85.38
2022-10-11T05:36:36.904Z,85.69
2022-10-11T05:37:36.878Z,84.97
2022-10-11T05:38:36.880Z,85.79
2022-10-11T05:39:36.879Z,85.79
2022-10-11T05:40:36.842Z,85.69
2022-10-11T05:41:36.830Z,85.49
2022-10-11T05:42:36.843Z,86.21
2022-10-11T05:43:36.819Z,86.31
2022-10-11T05:44:36.835Z,86.31
2022-10-11T05:45:36.819Z,86.21
2022-10-11T05:46:36.785Z,86.06
2022-10-11T05:47:37.784Z,85.49
2022-10-11T05:48:36.782Z,85.65
2022-10-11T05:49:36.773Z,84.52
2022-10-11T05:50:36.774Z,84.42
2022-10-11T05:51:36.739Z,84.72
2022-10-11T05:52:36.751Z,84.72
2022-10-11T05:53:36.765Z,84.72
2022-10-11T05:54:36.776Z,84.62
2022-10-11T05:55:36.714Z,84.77
2022-10-11T05:56:36.696Z,84.72
2022-10-11T05:57:36.682Z,84.11
2022-10-11T05:58:36.684Z,83.59
2022-10-11T05:59:36.683Z,83.39
2022-10-11T06:00:36.661Z,83.07
2022-10-11T06:01:36.683Z,82.93
2022-10-11T06:02:36.652Z,82.73
2022-10-11T06:03:36.625Z,82.77
2022-10-11T06:04:36.620Z,83.04
2022-10-11T06:05:36.613Z,83.04
2022-10-11T06:06:36.602Z,82.14
2022-10-11T06:07:36.608Z,81.28
2022-10-11T06:08:36.716Z,80.11
2022-10-11T06:09:36.566Z,78.50
2022-10-11T06:10:36.565Z,76.58
2022-10-11T06:11:36.557Z,75.21
2022-10-11T06:12:36.547Z,74.87
2022-10-11T06:13:36.553Z,72.99
2022-10-11T06:14:36.562Z,72.78
2022-10-11T06:15:36.532Z,71.70
2022-10-11T06:16:36.502Z,71.39
2022-10-11T06:17:36.501Z,71.12
2022-10-11T06:18:36.491Z,71.62
2022-10-11T06:19:36.495Z,71.32
2022-10-11T06:20:36.485Z,72.17
2022-10-11T06:21:36.459Z,72.34
2022-10-11T06:22:36.455Z,71.83
2022-10-11T06:23:36.436Z,71.73
2022-10-11T06:24:36.438Z,71.83
2022-10-11T06:25:36.453Z,71.62
2022-10-11T06:26:36.425Z,71.90
2022-10-11T06:27:36.394Z,71.59
2022-10-11T06:28:36.450Z,71.59
2022-10-11T06:29:36.389Z,71.80
2022-10-11T06:30:36.372Z,71.46
2022-10-11T06:31:36.376Z,71.87
2022-10-11T06:32:36.363Z,70.81
2022-10-11T06:33:36.336Z,69.96
2022-10-11T06:34:36.320Z,69.32
2022-10-11T06:35:36.317Z,69.18
2022-10-11T06:36:36.320Z,68.13
2022-10-11T06:37:36.316Z,67.59
2022-10-11T06:38:38.807Z,68.40
2022-10-11T06:39:36.276Z,66.85
2022-10-11T06:40:36.265Z,66.27
2022-10-11T06:41:36.273Z,65.59
2022-10-11T06:42:36.245Z,66.00
2022-10-11T06:43:36.265Z,65.56
2022-10-11T06:44:36.241Z,64.51
2022-10-11T06:45:36.223Z,63.67
2022-10-11T06:46:36.222Z,63.23
2022-10-11T06:47:36.208Z,62.29
2022-10-11T06:48:36.195Z,62.49
2022-10-11T06:49:36.193Z,61.75
2022-10-11T06:50:58.686Z,61.72
2022-10-11T06:51:38.171Z,61.04
2022-10-11T06:52:36.166Z,61.75
2022-10-11T06:53:36.144Z,61.82
2022-10-11T06:54:36.131Z,61.79
2022-10-11T06:55:36.129Z,60.65
2022-10-11T06:56:36.142Z,59.30
2022-10-11T06:57:36.113Z,59.63
2022-10-11T06:58:36.092Z,59.91
2022-10-11T06:59:36.095Z,60.31
2022-10-11T07:00:36.069Z,59.55
2022-10-11T07:01:36.144Z,58.56
2022-10-11T07:02:36.051Z,57.86
2022-10-11T07:03:36.036Z,57.40
2022-10-11T07:04:36.031Z,57.20
2022-10-11T07:05:36.017Z,57.07
2022-10-11T07:06:36.009Z,56.63
2022-10-11T07:07:36.004Z,56.89
2022-10-11T07:08:36.015Z,56.86
2022-10-11T07:09:35.999Z,57.17
2022-10-11T07:10:35.997Z,56.71
2022-10-11T07:11:35.983Z,57.83
2022-10-11T07:12:35.952Z,57.90
2022-10-11T07:13:36.082Z,58.11
2022-10-11T07:14:35.989Z,56.59
2022-10-11T07:15:35.941Z,56.46
2022-10-11T07:16:35.916Z,55.62
2022-10-11T07:17:35.906Z,55.52
2022-10-11T07:18:35.918Z,54.79
2022-10-11T07:19:35.993Z,53.98
2022-10-11T07:20:35.883Z,54.56
2022-10-11T07:21:35.883Z,54.86
2022-10-11T07:22:35.857Z,55.04
2022-10-11T07:23:35.850Z,54.23
2022-10-11T07:24:35.827Z,54.86
2022-10-11T07:25:35.846Z,55.27
2022-10-11T07:26:38.764Z,54.56
2022-10-11T07:27:36.816Z,55.40
2022-10-11T07:28:35.855Z,56.02
2022-10-11T07:29:35.785Z,56.53
2022-10-11T07:30:35.805Z,55.29
2022-10-11T07:31:35.765Z,54.76
2022-10-11T07:32:35.757Z,54.83
2022-10-11T07:33:35.752Z,54.10
2022-10-11T07:34:35.733Z,54.31
2022-10-11T07:35:35.731Z,55.11
2022-10-11T07:36:35.748Z,55.41
2022-10-11T07:37:35.718Z,55.34
2022-10-11T07:38:35.708Z,53.85
2022-10-11T07:39:35.697Z,55.07
2022-10-11T07:40:35.691Z,55.44
2022-10-11T07:41:35.701Z,54.23
2022-10-11T07:42:35.670Z,54.61
2022-10-11T07:43:35.659Z,54.43
2022-10-11T07:44:35.649Z,54.71
2022-10-11T07:45:35.628Z,54.18
2022-10-11T07:46:35.651Z,54.79
2022-10-11T07:47:35.617Z,52.84
2022-10-11T07:48:35.604Z,52.64
2022-10-11T07:49:35.603Z,53.34
2022-10-11T07:50:35.599Z,53.63
2022-10-11T07:51:35.581Z,52.11
2022-10-11T07:52:35.584Z,51.89
2022-10-11T07:53:35.561Z,51.71
2022-10-11T07:54:35.553Z,53.52
2022-10-11T07:55:35.532Z,54.36
2022-10-11T07:56:35.563Z,53.85
2022-10-11T07:57:35.528Z,54.25
2022-10-11T07:58:35.510Z,52.39
2022-10-11T07:59:35.505Z,52.89
2022-10-11T08:00:35.502Z,52.19
2022-10-11T08:01:35.585Z,52.82
2022-10-11T08:02:35.474Z,51.99
2022-10-11T08:03:35.489Z,53.42
2022-10-11T08:04:35.482Z,53.45
2022-10-11T08:05:35.441Z,54.86
2022-10-11T08:06:35.439Z,56.20
2022-10-11T08:07:35.445Z,55.69
2022-10-11T08:08:35.419Z,55.69
2022-10-11T08:09:35.422Z,56.50
2022-10-11T08:10:35.421Z,54.13
2022-10-11T08:11:35.392Z,54.43
2022-10-11T08:12:35.396Z,53.63
2022-10-11T08:13:35.377Z,53.90
2022-10-11T08:14:35.381Z,54.13
2022-10-11T08:15:35.347Z,55.26
2022-10-11T08:16:35.329Z,55.87
2022-10-11T08:17:35.325Z,54.99
2022-10-11T08:18:35.335Z,55.32
2022-10-11T08:19:35.310Z,55.29
2022-10-11T08:20:35.310Z,55.01
2022-10-11T08:21:35.308Z,56.43
2022-10-11T08:22:35.283Z,56.83
2022-10-11T08:23:35.272Z,56.35
2022-10-11T08:24:38.297Z,56.32
2022-10-11T08:25:38.781Z,57.26
2022-10-11T08:26:35.262Z,57.97
2022-10-11T08:27:35.241Z,58.67
2022-10-11T08:28:35.312Z,57.49
2022-10-11T08:29:35.219Z,58.67
2022-10-11T08:30:35.204Z,57.74
2022-10-11T08:31:35.195Z,58.12
2022-10-11T08:32:35.205Z,56.73
2022-10-11T08:33:40.649Z,57.23
2022-10-11T08:35:07.061Z,57.67
2022-10-11T08:35:35.151Z,57.56
2022-10-11T08:36:35.165Z,58.27
2022-10-11T08:37:35.131Z,58.27
2022-10-11T08:38:35.117Z,57.43
2022-10-11T08:39:35.115Z,59.15
2022-10-11T08:40:35.479Z,58.95
2022-10-11T08:41:35.140Z,58.42
2022-10-11T08:42:35.088Z,58.42
2022-10-11T08:43:35.079Z,58.22
2022-10-11T08:44:58.184Z,57.38
2022-10-11T08:45:37.061Z,57.28
2022-10-11T08:46:35.092Z,56.68
2022-10-11T08:47:35.092Z,58.59
2022-10-11T08:48:35.043Z,57.48
2022-10-11T08:49:35.055Z,57.74
2022-10-11T08:50:35.022Z,57.38
2022-10-11T08:51:34.999Z,57.35
2022-10-11T08:52:35.002Z,57.78
2022-10-11T08:53:34.982Z,58.62
2022-10-11T08:54:34.985Z,57.14
2022-10-11T08:55:34.965Z,59.63
2022-10-11T08:56:34.958Z,59.12
2022-10-11T08:57:34.943Z,58.72
2022-10-11T08:58:34.937Z,58.52
2022-10-11T08:59:34.939Z,58.62
2022-10-11T09:00:34.919Z,58.01
2022-10-11T09:01:34.997Z,57.41
2022-10-11T09:02:55.795Z,57.89
2022-10-11T09:03:36.894Z,58.59
2022-10-11T09:04:34.893Z,58.76
2022-10-11T09:05:34.857Z,56.77
2022-10-11T09:06:34.883Z,57.61
2022-10-11T09:07:34.839Z,58.82
2022-10-11T09:08:34.845Z,58.01
2022-10-11T09:09:34.832Z,58.09
2022-10-11T09:10:34.812Z,58.12
2022-10-11T09:11:34.827Z,58.72
2022-10-11T09:12:39.794Z,58.67
2022-10-11T09:13:35.795Z,59.12
2022-10-11T09:14:34.785Z,58.34
2022-10-11T09:15:34.789Z,59.45
2022-10-11T09:16:34.770Z,59.63
2022-10-11T09:17:34.746Z,57.71
2022-10-11T09:18:34.736Z,59.20
2022-10-11T09:19:34.729Z,58.49
2022-10-11T09:20:35.735Z,58.49
2022-10-11T09:21:34.748Z,58.32
2022-10-11T09:22:34.737Z,58.62
2022-10-11T09:23:34.681Z,59.02
2022-10-11T09:24:34.680Z,58.92
2022-10-11T09:25:34.662Z,58.25
2022-10-11T09:26:34.663Z,58.60
2022-10-11T09:27:57.848Z,60.93
2022-10-11T09:28:35.712Z,60.55
2022-10-11T09:29:34.625Z,60.78
2022-10-11T09:30:34.615Z,60.94
2022-10-11T09:31:34.629Z,60.94
2022-10-11T09:32:34.601Z,61.44
2022-10-11T09:33:34.583Z,63.44
2022-10-11T09:34:34.586Z,61.39
2022-10-11T09:35:34.585Z,61.66
2022-10-11T09:36:34.556Z,60.85
2022-10-11T09:37:34.550Z,60.75
2022-10-11T09:38:34.535Z,60.38
2022-10-11T09:39:34.539Z,60.94
2022-10-11T09:40:34.524Z,61.75
2022-10-11T09:41:34.512Z,62.56
2022-10-11T09:42:34.513Z,62.53
2022-10-11T09:43:34.486Z,61.35
2022-10-11T09:44:34.507Z,61.95
2022-10-11T09:45:34.485Z,62.76
2022-10-11T09:46:34.458Z,61.65
2022-10-11T09:47:34.458Z,62.23
2022-10-11T09:48:34.467Z,63.47
2022-10-11T09:49:34.432Z,62.05
2022-10-11T09:50:34.435Z,61.85
2022-10-11T09:51:34.419Z,61.68
2022-10-11T09:52:34.415Z,63.20
2022-10-11T09:53:34.401Z,63.02
2022-10-11T09:54:34.376Z,62.72
2022-10-11T09:55:34.379Z,63.32
2022-10-11T09:56:34.355Z,63.96
2022-10-11T09:57:34.360Z,63.53
2022-10-11T09:58:34.372Z,63.83
2022-10-11T09:59:34.343Z,63.53
2022-10-11T10:00:34.323Z,63.73
2022-10-11T10:01:34.357Z,63.09
2022-10-11T10:02:34.307Z,62.82
2022-10-11T10:03:34.305Z,63.46
2022-10-11T10:04:34.310Z,63.32
2022-10-11T10:05:34.304Z,64.04
2022-10-11T10:06:34.268Z,65.69
2022-10-11T10:07:34.270Z,65.86
2022-10-11T10:08:34.246Z,65.22
2022-10-11T10:09:34.271Z,62.92
2022-10-11T10:10:34.243Z,64.04
2022-10-11T10:11:34.217Z,63.76
2022-10-11T10:12:35.225Z,64.70
2022-10-11T10:13:34.208Z,63.66
2022-10-11T10:14:34.178Z,64.10
2022-10-11T10:15:35.190Z,63.89
2022-10-11T10:16:34.184Z,64.00
2022-10-11T10:17:34.158Z,64.70
2022-10-11T10:18:34.150Z,63.79
2022-10-11T10:19:34.170Z,64.13
2022-10-11T10:20:34.126Z,65.72
2022-10-11T10:21:35.146Z,64.75
2022-10-11T10:22:34.130Z,63.60
2022-10-11T10:23:34.115Z,62.79
2022-10-11T10:24:34.095Z,61.17
2022-10-11T10:25:34.148Z,61.47
2022-10-11T10:26:34.068Z,61.07
2022-10-11T10:27:35.053Z,62.92
2022-10-11T10:28:34.180Z,60.66
2022-10-11T10:29:34.047Z,61.95
2022-10-11T10:30:35.695Z,63.44
2022-10-11T10:31:44.422Z,61.92
2022-10-11T10:32:36.002Z,60.78
2022-10-11T10:33:34.004Z,60.45
2022-10-11T10:34:33.976Z,59.84
2022-10-11T10:35:33.996Z,60.35
2022-10-11T10:36:33.968Z,60.75
2022-10-11T10:37:33.963Z,59.64
2022-10-11T10:38:33.961Z,59.03
2022-10-11T10:39:33.927Z,58.65
2022-10-11T10:40:33.930Z,59.27
2022-10-11T10:41:33.911Z,58.78
2022-10-11T10:42:33.901Z,58.13
2022-10-11T10:43:33.908Z,59.32
2022-10-11T10:44:33.909Z,59.25
2022-10-11T10:45:33.917Z,59.85
2022-10-11T10:46:33.858Z,59.85
2022-10-11T10:47:33.869Z,59.52
2022-10-11T10:49:01.767Z,59.42
2022-10-11T10:49:53.072Z,59.05
2022-10-11T10:50:35.863Z,59.65
2022-10-11T10:51:33.815Z,59.70
2022-10-11T10:52:33.821Z,60.85
2022-10-11T10:53:33.797Z,61.83
2022-10-11T10:54:33.798Z,62.72
2022-10-11T10:55:33.804Z,60.97
2022-10-11T10:56:33.776Z,60.36
2022-10-11T10:57:33.755Z,59.27
2022-10-11T10:58:33.761Z,60.26
2022-10-11T10:59:33.747Z,58.74
2022-10-11T11:00:33.729Z,60.97
2022-10-11T11:01:33.795Z,59.95
2022-10-11T11:02:40.860Z,58.64
2022-10-11T11:03:35.723Z,59.78
2022-10-11T11:04:33.688Z,59.14
2022-10-11T11:05:33.679Z,58.84
2022-10-11T11:06:36.447Z,58.56
2022-10-11T11:07:33.667Z,58.67
2022-10-11T11:08:33.660Z,59.78
2022-10-11T11:09:33.643Z,59.22
2022-10-11T11:10:33.633Z,58.51
2022-10-11T11:11:33.643Z,57.60
2022-10-11T11:12:33.626Z,58.51
2022-10-11T11:13:33.603Z,58.58
2022-10-11T11:14:33.624Z,56.56
2022-10-11T11:15:37.762Z,56.73
2022-10-11T11:16:34.600Z,57.85
2022-10-11T11:17:33.578Z,56.94
2022-10-11T11:18:33.566Z,54.61
2022-10-11T11:19:33.567Z,55.22
2022-10-11T11:20:33.549Z,55.09
2022-10-11T11:21:34.986Z,53.75
2022-10-11T11:22:33.511Z,54.11
2022-10-11T11:23:33.501Z,53.60
2022-10-11T11:24:33.517Z,55.24
2022-10-11T11:25:33.481Z,55.93
2022-10-11T11:26:33.473Z,56.23
2022-10-11T11:27:33.465Z,54.03
2022-10-11T11:28:33.519Z,54.21
2022-10-11T11:29:33.444Z,55.19
2022-10-11T11:30:33.456Z,55.11
2022-10-11T11:31:33.421Z,56.53
2022-10-11T11:32:33.442Z,55.09
2022-10-11T11:33:33.412Z,54.28
2022-10-11T11:34:33.401Z,55.47
2022-10-11T11:35:33.403Z,52.79
2022-10-11T11:36:33.379Z,55.90
2022-10-11T11:37:33.398Z,52.28
2022-10-11T11:38:33.364Z,52.28
2022-10-11T11:39:33.345Z,53.30
2022-10-11T11:40:33.338Z,51.70
2022-10-11T11:41:33.327Z,53.75
2022-10-11T11:42:33.313Z,53.55
2022-10-11T11:43:33.345Z,53.65
2022-10-11T11:44:33.299Z,54.26
2022-10-11T11:45:33.290Z,53.85
2022-10-11T11:46:33.284Z,54.18
2022-10-11T11:47:33.262Z,54.76
2022-10-11T11:48:33.281Z,55.57
2022-10-11T11:49:33.306Z,54.66
2022-10-11T11:50:34.387Z,53.63
2022-10-11T11:51:33.224Z,54.31
2022-10-11T11:52:33.226Z,53.80
2022-10-11T11:53:34.226Z,53.17
2022-10-11T11:54:33.204Z,52.16
2022-10-11T11:55:33.193Z,54.08
2022-10-11T11:56:33.165Z,55.19
2022-10-11T11:57:33.177Z,53.07
2022-10-11T11:58:33.163Z,51.53
2022-10-11T11:59:33.176Z,52.06
2022-10-11T12:00:33.142Z,52.99
2022-10-11T12:01:33.123Z,53.72
2022-10-11T12:02:33.108Z,53.52
2022-10-11T12:03:33.852Z,54.66
2022-10-11T12:04:33.126Z,53.85
2022-10-11T12:05:33.086Z,54.74
2022-10-11T12:06:33.077Z,54.21
2022-10-11T12:07:33.095Z,54.41
2022-10-11T12:08:33.061Z,53.80
2022-10-11T12:09:33.047Z,53.78
2022-10-11T12:10:33.058Z,53.90
2022-10-11T12:11:35.476Z,53.12
2022-10-11T12:12:33.039Z,54.26
2022-10-11T12:13:33.010Z,54.36
2022-10-11T12:14:33.062Z,53.72
2022-10-11T12:15:33.017Z,54.11
2022-10-11T12:16:33.070Z,53.40
2022-10-11T12:17:32.976Z,53.45
2022-10-11T12:18:32.964Z,54.18
2022-10-11T12:19:32.957Z,54.16
2022-10-11T12:20:32.980Z,53.67
2022-10-11T12:21:32.932Z,54.59
2022-10-11T12:22:33.920Z,54.28
2022-10-11T12:23:32.926Z,55.77
2022-10-11T12:24:32.915Z,55.07
2022-10-11T12:25:32.919Z,54.46
2022-10-11T12:26:32.903Z,52.94
2022-10-11T12:27:32.878Z,54.03
2022-10-11T12:28:32.924Z,53.60
2022-10-11T12:29:32.878Z,53.80
2022-10-11T12:30:32.861Z,54.08
2022-10-11T12:31:32.850Z,53.88
2022-10-11T12:32:32.817Z,53.98
2022-10-11T12:33:32.813Z,52.76
2022-10-11T12:34:32.959Z,51.93
2022-10-11T12:35:32.797Z,52.84
2022-10-11T12:36:32.789Z,51.63
2022-10-11T12:37:32.777Z,51.40
2022-10-11T12:38:32.790Z,51.23
2022-10-11T12:39:32.767Z,52.97
2022-10-11T12:40:32.762Z,53.17
2022-10-11T12:41:32.759Z,52.97
2022-10-11T12:42:32.721Z,53.47
2022-10-11T12:43:32.713Z,52.79
2022-10-11T12:44:32.733Z,53.60
2022-10-11T12:45:32.708Z,53.85
2022-10-11T12:46:32.698Z,55.37
2022-10-11T12:47:32.698Z,54.26
2022-10-11T12:48:37.130Z,54.36
2022-10-11T12:49:34.682Z,54.05
2022-10-11T12:50:32.673Z,54.94
2022-10-11T12:51:32.639Z,54.44
2022-10-11T12:52:32.644Z,54.86
2022-10-11T12:53:32.617Z,55.17